sensor_id;sensor_type;location;lat;lon;timestamp;pressure;altitude;pressure_sealevel;temperature;humidity
73429;BME280;61643;49.564;17.412;2022-11-10T00:02:14;98539.34;;;8.44;98.47
73429;BME280;61643;49.564;17.412;2022-11-10T00:04:39;98526.75;;;8.44;98.71
73429;BME280;61643;49.564;17.412;2022-11-10T00:07:05;98527.22;;;8.41;98.77
73429;BME280;61643;49.564;17.412;2022-11-10T00:09:30;98528.06;;;8.42;98.79
73429;BME280;61643;49.564;17.412;2022-11-10T00:11:55;98547.41;;;8.44;98.52
73429;BME280;61643;49.564;17.412;2022-11-10T00:14:21;98545.78;;;8.43;98.37
73429;BME280;61643;49.564;17.412;2022-11-10T00:17:04;98542.75;;;8.39;98.05
73429;BME280;61643;49.564;17.412;2022-11-10T00:19:31;98556.25;;;8.44;98.62
73429;BME280;61643;49.564;17.412;2022-11-10T00:21:57;98559.63;;;8.39;98.86
73429;BME280;61643;49.564;17.412;2022-11-10T00:24:23;98561.41;;;8.34;98.84
73429;BME280;61643;49.564;17.412;2022-11-10T00:26:49;98561.53;;;8.39;98.86
73429;BME280;61643;49.564;17.412;2022-11-10T00:29:14;98561.75;;;8.37;98.92
73429;BME280;61643;49.564;17.412;2022-11-10T00:31:40;98554.06;;;8.29;99.51
73429;BME280;61643;49.564;17.412;2022-11-10T00:34:07;98555.34;;;8.38;99.49
73429;BME280;61643;49.564;17.412;2022-11-10T00:36:35;98545.53;;;8.32;98.95
73429;BME280;61643;49.564;17.412;2022-11-10T00:39:00;98541.59;;;8.35;98.67
73429;BME280;61643;49.564;17.412;2022-11-10T00:41:25;98550.91;;;8.32;98.85
73429;BME280;61643;49.564;17.412;2022-11-10T00:43:51;98541.22;;;8.20;99.88
73429;BME280;61643;49.564;17.412;2022-11-10T00:46:16;98555.44;;;8.32;99.35
73429;BME280;61643;49.564;17.412;2022-11-10T00:48:42;98566.53;;;8.35;99.16
73429;BME280;61643;49.564;17.412;2022-11-10T00:51:22;98562.22;;;8.34;99.36
73429;BME280;61643;49.564;17.412;2022-11-10T00:53:48;98565.94;;;8.33;99.42
73429;BME280;61643;49.564;17.412;2022-11-10T00:56:13;98569.66;;;8.32;98.80
73429;BME280;61643;49.564;17.412;2022-11-10T00:58:39;98570.03;;;8.36;98.98
73429;BME280;61643;49.564;17.412;2022-11-10T01:01:05;98573.41;;;8.31;99.22
73429;BME280;61643;49.564;17.412;2022-11-10T01:03:31;98577.72;;;8.32;99.18
73429;BME280;61643;49.564;17.412;2022-11-10T01:05:57;98575.94;;;8.26;99.69
73429;BME280;61643;49.564;17.412;2022-11-10T01:08:23;98583.56;;;8.29;99.28
73429;BME280;61643;49.564;17.412;2022-11-10T01:10:48;98578.19;;;8.29;99.61
73429;BME280;61643;49.564;17.412;2022-11-10T01:13:14;98585.84;;;8.26;99.01
73429;BME280;61643;49.564;17.412;2022-11-10T01:15:40;98588.44;;;8.32;99.70
73429;BME280;61643;49.564;17.412;2022-11-10T01:18:06;98592.28;;;8.36;98.37
73429;BME280;61643;49.564;17.412;2022-11-10T01:20:33;98584.59;;;8.40;98.47
73429;BME280;61643;49.564;17.412;2022-11-10T01:22:59;98572.59;;;8.31;98.97
73429;BME280;61643;49.564;17.412;2022-11-10T01:25:24;98577.28;;;8.35;99.03
73429;BME280;61643;49.564;17.412;2022-11-10T01:27:50;98572.94;;;8.34;98.77
73429;BME280;61643;49.564;17.412;2022-11-10T01:30:16;98573.88;;;8.28;99.78
73429;BME280;61643;49.564;17.412;2022-11-10T01:32:41;98581.47;;;8.31;99.55
73429;BME280;61643;49.564;17.412;2022-11-10T01:35:07;98576.97;;;8.25;99.51
73429;BME280;61643;49.564;17.412;2022-11-10T01:37:33;98572.44;;;8.26;99.73
73429;BME280;61643;49.564;17.412;2022-11-10T01:39:58;98579.31;;;8.22;99.94
73429;BME280;61643;49.564;17.412;2022-11-10T01:42:26;98579.56;;;8.20;99.75
73429;BME280;61643;49.564;17.412;2022-11-10T01:47:57;98570.56;;;8.15;99.87
73429;BME280;61643;49.564;17.412;2022-11-10T01:50:26;98573.13;;;8.21;99.97
73429;BME280;61643;49.564;17.412;2022-11-10T01:53:00;98567.53;;;8.11;99.99
73429;BME280;61643;49.564;17.412;2022-11-10T01:55:26;98580.03;;;8.17;99.71
73429;BME280;61643;49.564;17.412;2022-11-10T01:57:53;98571.41;;;8.27;99.44
73429;BME280;61643;49.564;17.412;2022-11-10T02:00:19;98566.97;;;8.09;99.90
73429;BME280;61643;49.564;17.412;2022-11-10T02:03:00;98575.94;;;8.15;99.72
73429;BME280;61643;49.564;17.412;2022-11-10T02:05:26;98580.59;;;8.19;99.55
73429;BME280;61643;49.564;17.412;2022-11-10T02:07:51;98572.44;;;8.14;99.61
73429;BME280;61643;49.564;17.412;2022-11-10T02:10:19;98579.34;;;8.10;100.00
73429;BME280;61643;49.564;17.412;2022-11-10T02:12:46;98580.03;;;8.17;99.39
73429;BME280;61643;49.564;17.412;2022-11-10T02:15:13;98583.06;;;8.09;100.00
73429;BME280;61643;49.564;17.412;2022-11-10T02:17:39;98581.06;;;8.05;100.00
73429;BME280;61643;49.564;17.412;2022-11-10T02:20:09;98583.28;;;8.08;100.00
73429;BME280;61643;49.564;17.412;2022-11-10T02:22:35;98581.88;;;8.05;100.00
73429;BME280;61643;49.564;17.412;2022-11-10T02:25:01;98583.41;;;8.13;100.00
73429;BME280;61643;49.564;17.412;2022-11-10T02:27:27;98580.47;;;8.14;100.00
73429;BME280;61643;49.564;17.412;2022-11-10T02:29:52;98586.91;;;8.13;100.00
73429;BME280;61643;49.564;17.412;2022-11-10T02:32:18;98592.25;;;8.13;100.00
73429;BME280;61643;49.564;17.412;2022-11-10T02:34:43;98583.16;;;8.03;100.00
73429;BME280;61643;49.564;17.412;2022-11-10T02:37:09;98584.91;;;8.09;100.00
73429;BME280;61643;49.564;17.412;2022-11-10T02:39:35;98588.88;;;8.06;100.00
73429;BME280;61643;49.564;17.412;2022-11-10T02:42:00;98582.34;;;8.02;100.00
73429;BME280;61643;49.564;17.412;2022-11-10T02:44:26;98587.47;;;8.04;100.00
73429;BME280;61643;49.564;17.412;2022-11-10T02:46:52;98579.88;;;8.01;100.00
73429;BME280;61643;49.564;17.412;2022-11-10T02:49:17;98580.34;;;7.98;100.00
73429;BME280;61643;49.564;17.412;2022-11-10T02:51:42;98580.13;;;7.99;100.00
73429;BME280;61643;49.564;17.412;2022-11-10T02:54:08;98587.59;;;8.09;100.00
73429;BME280;61643;49.564;17.412;2022-11-10T02:56:33;98596.00;;;8.12;100.00
73429;BME280;61643;49.564;17.412;2022-11-10T02:59:00;98600.28;;;8.02;100.00
73429;BME280;61643;49.564;17.412;2022-11-10T03:01:25;98604.97;;;8.06;100.00
73429;BME280;61643;49.564;17.412;2022-11-10T03:03:51;98603.53;;;8.04;100.00
73429;BME280;61643;49.564;17.412;2022-11-10T03:06:16;98597.34;;;8.03;100.00
73429;BME280;61643;49.564;17.412;2022-11-10T03:08:41;98597.34;;;8.03;100.00
73429;BME280;61643;49.564;17.412;2022-11-10T03:11:07;98608.06;;;8.03;100.00
73429;BME280;61643;49.564;17.412;2022-11-10T03:13:32;98607.53;;;8.13;100.00
73429;BME280;61643;49.564;17.412;2022-11-10T03:15:57;98604.34;;;8.04;100.00
73429;BME280;61643;49.564;17.412;2022-11-10T03:18:23;98606.34;;;7.97;100.00
73429;BME280;61643;49.564;17.412;2022-11-10T03:20:48;98610.91;;;8.08;100.00
73429;BME280;61643;49.564;17.412;2022-11-10T03:23:16;98617.28;;;8.07;100.00
73429;BME280;61643;49.564;17.412;2022-11-10T03:25:41;98618.47;;;8.11;100.00
73429;BME280;61643;49.564;17.412;2022-11-10T03:28:07;98623.25;;;8.09;100.00
73429;BME280;61643;49.564;17.412;2022-11-10T03:30:33;98634.56;;;8.11;100.00
73429;BME280;61643;49.564;17.412;2022-11-10T03:32:58;98637.25;;;8.11;100.00
73429;BME280;61643;49.564;17.412;2022-11-10T03:35:23;98632.94;;;8.10;100.00
73429;BME280;61643;49.564;17.412;2022-11-10T03:37:49;98646.94;;;8.12;100.00
73429;BME280;61643;49.564;17.412;2022-11-10T03:40:14;98658.22;;;8.14;100.00
73429;BME280;61643;49.564;17.412;2022-11-10T03:42:44;98663.16;;;8.17;99.86
73429;BME280;61643;49.564;17.412;2022-11-10T03:45:11;98674.22;;;8.21;100.00
73429;BME280;61643;49.564;17.412;2022-11-10T03:47:37;98680.50;;;8.15;100.00
73429;BME280;61643;49.564;17.412;2022-11-10T03:50:03;98688.31;;;8.16;100.00
73429;BME280;61643;49.564;17.412;2022-11-10T03:52:28;98691.56;;;8.18;99.87
73429;BME280;61643;49.564;17.412;2022-11-10T03:54:54;98688.53;;;8.15;99.83
73429;BME280;61643;49.564;17.412;2022-11-10T03:57:19;98699.63;;;8.18;100.00
73429;BME280;61643;49.564;17.412;2022-11-10T03:59:44;98697.19;;;8.17;99.47
73429;BME280;61643;49.564;17.412;2022-11-10T04:02:10;98700.44;;;8.19;99.71
73429;BME280;61643;49.564;17.412;2022-11-10T04:04:35;98703.38;;;8.17;100.00
73429;BME280;61643;49.564;17.412;2022-11-10T04:07:19;98702.75;;;8.15;100.00
73429;BME280;61643;49.564;17.412;2022-11-10T04:10:03;98705.81;;;8.19;99.46
73429;BME280;61643;49.564;17.412;2022-11-10T04:12:29;98704.75;;;8.20;98.57
73429;BME280;61643;49.564;17.412;2022-11-10T04:15:13;98703.72;;;8.21;98.62
73429;BME280;61643;49.564;17.412;2022-11-10T04:17:57;98708.97;;;8.27;98.18
73429;BME280;61643;49.564;17.412;2022-11-10T04:20:46;98708.97;;;8.27;98.93
73429;BME280;61643;49.564;17.412;2022-11-10T04:23:12;98697.47;;;7.97;99.86
73429;BME280;61643;49.564;17.412;2022-11-10T04:25:59;98705.41;;;8.04;100.00
73429;BME280;61643;49.564;17.412;2022-11-10T04:28:44;98697.38;;;8.04;100.00
73429;BME280;61643;49.564;17.412;2022-11-10T04:31:11;98705.53;;;8.09;99.87
73429;BME280;61643;49.564;17.412;2022-11-10T04:33:37;98711.84;;;8.14;99.53
73429;BME280;61643;49.564;17.412;2022-11-10T04:36:04;98710.94;;;8.20;99.25
73429;BME280;61643;49.564;17.412;2022-11-10T04:38:29;98710.34;;;8.18;98.50
73429;BME280;61643;49.564;17.412;2022-11-10T04:40:55;98715.22;;;8.10;99.35
73429;BME280;61643;49.564;17.412;2022-11-10T04:43:20;98713.50;;;8.15;98.72
73429;BME280;61643;49.564;17.412;2022-11-10T04:45:45;98716.78;;;8.17;98.75
73429;BME280;61643;49.564;17.412;2022-11-10T04:48:11;98710.91;;;8.09;99.75
73429;BME280;61643;49.564;17.412;2022-11-10T04:50:36;98710.31;;;8.07;100.00
73429;BME280;61643;49.564;17.412;2022-11-10T04:53:01;98707.25;;;8.03;100.00
73429;BME280;61643;49.564;17.412;2022-11-10T04:55:27;98709.25;;;8.08;99.98
73429;BME280;61643;49.564;17.412;2022-11-10T04:57:52;98708.00;;;8.10;99.52
73429;BME280;61643;49.564;17.412;2022-11-10T05:00:18;98696.53;;;8.03;100.00
73429;BME280;61643;49.564;17.412;2022-11-10T05:02:44;98680.91;;;8.00;100.00
73429;BME280;61643;49.564;17.412;2022-11-10T05:05:09;98665.25;;;7.85;100.00
73429;BME280;61643;49.564;17.412;2022-11-10T05:07:36;98692.25;;;8.02;100.00
73429;BME280;61643;49.564;17.412;2022-11-10T05:10:02;98706.00;;;8.06;100.00
73429;BME280;61643;49.564;17.412;2022-11-10T05:12:27;98708.44;;;8.07;100.00
73429;BME280;61643;49.564;17.412;2022-11-10T05:14:53;98714.16;;;8.11;99.74
73429;BME280;61643;49.564;17.412;2022-11-10T05:17:18;98705.34;;;8.10;100.00
73429;BME280;61643;49.564;17.412;2022-11-10T05:19:43;98711.59;;;8.04;100.00
73429;BME280;61643;49.564;17.412;2022-11-10T05:22:11;98711.94;;;8.08;100.00
73429;BME280;61643;49.564;17.412;2022-11-10T05:24:37;98709.00;;;7.98;100.00
73429;BME280;61643;49.564;17.412;2022-11-10T05:27:02;98709.69;;;7.93;100.00
73429;BME280;61643;49.564;17.412;2022-11-10T05:29:27;98709.31;;;7.89;100.00
73429;BME280;61643;49.564;17.412;2022-11-10T05:31:53;98709.94;;;7.91;99.89
73429;BME280;61643;49.564;17.412;2022-11-10T05:34:18;98722.19;;;7.99;100.00
73429;BME280;61643;49.564;17.412;2022-11-10T05:36:43;98726.94;;;7.97;100.00
73429;BME280;61643;49.564;17.412;2022-11-10T05:39:09;98717.72;;;7.93;100.00
73429;BME280;61643;49.564;17.412;2022-11-10T05:41:34;98740.72;;;8.01;100.00
73429;BME280;61643;49.564;17.412;2022-11-10T05:43:59;98737.56;;;8.04;100.00
73429;BME280;61643;49.564;17.412;2022-11-10T05:46:25;98732.81;;;8.06;100.00
73429;BME280;61643;49.564;17.412;2022-11-10T05:48:50;98732.75;;;7.94;100.00
73429;BME280;61643;49.564;17.412;2022-11-10T05:51:15;98731.72;;;7.95;99.69
73429;BME280;61643;49.564;17.412;2022-11-10T05:53:41;98754.78;;;7.96;100.00
73429;BME280;61643;49.564;17.412;2022-11-10T05:56:06;98748.84;;;7.94;100.00
73429;BME280;61643;49.564;17.412;2022-11-10T05:58:32;98758.28;;;7.97;100.00
73429;BME280;61643;49.564;17.412;2022-11-10T06:00:57;98769.84;;;7.97;100.00
73429;BME280;61643;49.564;17.412;2022-11-10T06:03:23;98781.38;;;7.98;100.00
73429;BME280;61643;49.564;17.412;2022-11-10T06:05:49;98785.00;;;8.03;100.00
73429;BME280;61643;49.564;17.412;2022-11-10T06:08:14;98784.41;;;8.01;100.00
73429;BME280;61643;49.564;17.412;2022-11-10T06:10:41;98798.03;;;8.00;100.00
73429;BME280;61643;49.564;17.412;2022-11-10T06:13:07;98804.22;;;8.00;100.00
73429;BME280;61643;49.564;17.412;2022-11-10T06:15:33;98796.41;;;7.99;100.00
73429;BME280;61643;49.564;17.412;2022-11-10T06:17:58;98807.66;;;7.89;100.00
73429;BME280;61643;49.564;17.412;2022-11-10T06:20:24;98801.19;;;7.78;100.00
73429;BME280;61643;49.564;17.412;2022-11-10T06:23:01;98822.88;;;7.77;100.00
73429;BME280;61643;49.564;17.412;2022-11-10T06:25:28;98827.59;;;7.93;100.00
73429;BME280;61643;49.564;17.412;2022-11-10T06:27:54;98837.44;;;7.99;100.00
73429;BME280;61643;49.564;17.412;2022-11-10T06:30:20;98840.72;;;7.83;100.00
73429;BME280;61643;49.564;17.412;2022-11-10T06:32:46;98845.34;;;7.76;100.00
73429;BME280;61643;49.564;17.412;2022-11-10T06:35:11;98842.94;;;7.86;100.00
73429;BME280;61643;49.564;17.412;2022-11-10T06:37:37;98840.44;;;7.91;100.00
73429;BME280;61643;49.564;17.412;2022-11-10T06:40:09;98852.03;;;8.03;100.00
73429;BME280;61643;49.564;17.412;2022-11-10T06:42:35;98851.72;;;7.93;100.00
73429;BME280;61643;49.564;17.412;2022-11-10T06:45:01;98849.88;;;7.93;100.00
73429;BME280;61643;49.564;17.412;2022-11-10T06:47:26;98849.34;;;8.03;100.00
73429;BME280;61643;49.564;17.412;2022-11-10T06:49:52;98859.03;;;8.04;100.00
73429;BME280;61643;49.564;17.412;2022-11-10T06:52:18;98860.31;;;8.02;100.00
73429;BME280;61643;49.564;17.412;2022-11-10T06:54:43;98873.09;;;8.00;100.00
73429;BME280;61643;49.564;17.412;2022-11-10T06:57:09;98873.41;;;8.10;100.00
73429;BME280;61643;49.564;17.412;2022-11-10T06:59:34;98887.41;;;8.12;100.00
73429;BME280;61643;49.564;17.412;2022-11-10T07:01:59;98882.03;;;8.12;100.00
73429;BME280;61643;49.564;17.412;2022-11-10T07:04:25;98878.41;;;8.06;100.00
73429;BME280;61643;49.564;17.412;2022-11-10T07:06:50;98867.69;;;8.06;100.00
73429;BME280;61643;49.564;17.412;2022-11-10T07:09:16;98877.50;;;8.12;100.00
73429;BME280;61643;49.564;17.412;2022-11-10T07:11:41;98874.34;;;8.15;100.00
73429;BME280;61643;49.564;17.412;2022-11-10T07:14:07;98873.53;;;8.15;100.00
73429;BME280;61643;49.564;17.412;2022-11-10T07:16:32;98891.13;;;8.29;100.00
73429;BME280;61643;49.564;17.412;2022-11-10T07:18:58;98889.69;;;8.26;100.00
73429;BME280;61643;49.564;17.412;2022-11-10T07:21:23;98894.47;;;8.24;100.00
73429;BME280;61643;49.564;17.412;2022-11-10T07:23:48;98906.56;;;8.33;100.00
73429;BME280;61643;49.564;17.412;2022-11-10T07:26:14;98909.38;;;8.38;100.00
73429;BME280;61643;49.564;17.412;2022-11-10T07:28:39;98913.66;;;8.21;100.00
73429;BME280;61643;49.564;17.412;2022-11-10T07:31:06;98924.34;;;8.28;100.00
73429;BME280;61643;49.564;17.412;2022-11-10T07:33:31;98923.47;;;8.34;100.00
73429;BME280;61643;49.564;17.412;2022-11-10T07:35:59;98930.59;;;8.40;100.00
73429;BME280;61643;49.564;17.412;2022-11-10T07:38:27;98937.03;;;8.39;99.31
73429;BME280;61643;49.564;17.412;2022-11-10T07:40:54;98943.34;;;8.45;99.39
73429;BME280;61643;49.564;17.412;2022-11-10T07:43:21;98946.31;;;8.55;99.34
73429;BME280;61643;49.564;17.412;2022-11-10T07:45:48;98937.53;;;8.48;100.00
73429;BME280;61643;49.564;17.412;2022-11-10T07:48:14;98945.84;;;8.58;99.42
73429;BME280;61643;49.564;17.412;2022-11-10T07:50:39;98952.19;;;8.63;98.27
73429;BME280;61643;49.564;17.412;2022-11-10T07:53:13;98950.91;;;8.66;98.60
73429;BME280;61643;49.564;17.412;2022-11-10T07:55:40;98955.00;;;8.68;98.69
73429;BME280;61643;49.564;17.412;2022-11-10T07:58:07;98960.16;;;8.70;98.02
73429;BME280;61643;49.564;17.412;2022-11-10T08:00:34;98968.78;;;8.72;97.95
73429;BME280;61643;49.564;17.412;2022-11-10T08:03:03;98964.03;;;8.74;98.19
73429;BME280;61643;49.564;17.412;2022-11-10T08:05:30;98975.13;;;8.77;98.35
73429;BME280;61643;49.564;17.412;2022-11-10T08:07:55;98972.81;;;8.81;98.15
73429;BME280;61643;49.564;17.412;2022-11-10T08:10:21;98966.25;;;8.77;97.88
73429;BME280;61643;49.564;17.412;2022-11-10T08:13:01;98970.13;;;8.81;98.10
73429;BME280;61643;49.564;17.412;2022-11-10T08:15:28;98973.78;;;8.68;99.13
73429;BME280;61643;49.564;17.412;2022-11-10T08:18:17;98975.72;;;8.79;98.12
73429;BME280;61643;49.564;17.412;2022-11-10T08:20:43;98979.97;;;8.69;99.16
73429;BME280;61643;49.564;17.412;2022-11-10T08:23:09;98985.34;;;8.69;99.41
73429;BME280;61643;49.564;17.412;2022-11-10T08:25:36;98996.09;;;8.69;99.24
73429;BME280;61643;49.564;17.412;2022-11-10T08:28:09;98993.66;;;8.67;99.02
73429;BME280;61643;49.564;17.412;2022-11-10T08:30:36;98994.59;;;8.73;99.09
73429;BME280;61643;49.564;17.412;2022-11-10T08:33:02;98992.81;;;8.67;99.77
73429;BME280;61643;49.564;17.412;2022-11-10T08:35:30;98993.78;;;8.72;99.13
73429;BME280;61643;49.564;17.412;2022-11-10T08:37:56;98997.56;;;8.83;99.33
73429;BME280;61643;49.564;17.412;2022-11-10T08:40:22;98998.00;;;8.80;100.00
73429;BME280;61643;49.564;17.412;2022-11-10T08:42:57;99003.22;;;8.93;99.20
73429;BME280;61643;49.564;17.412;2022-11-10T08:45:24;99018.16;;;8.89;98.36
73429;BME280;61643;49.564;17.412;2022-11-10T08:48:04;99020.47;;;8.85;99.15
73429;BME280;61643;49.564;17.412;2022-11-10T08:50:30;99014.75;;;8.94;99.11
73429;BME280;61643;49.564;17.412;2022-11-10T08:52:56;99019.09;;;8.95;99.47
73429;BME280;61643;49.564;17.412;2022-11-10T08:55:21;99021.69;;;9.01;98.31
73429;BME280;61643;49.564;17.412;2022-11-10T08:57:47;99031.09;;;9.10;98.61
73429;BME280;61643;49.564;17.412;2022-11-10T09:00:14;99033.31;;;9.13;98.58
73429;BME280;61643;49.564;17.412;2022-11-10T09:02:39;99045.81;;;9.19;97.50
73429;BME280;61643;49.564;17.412;2022-11-10T09:05:05;99044.19;;;9.18;97.00
73429;BME280;61643;49.564;17.412;2022-11-10T09:07:31;99055.53;;;9.20;97.58
73429;BME280;61643;49.564;17.412;2022-11-10T09:09:56;99056.81;;;9.18;97.49
73429;BME280;61643;49.564;17.412;2022-11-10T09:12:21;99054.94;;;9.18;98.01
73429;BME280;61643;49.564;17.412;2022-11-10T09:14:47;99065.22;;;9.21;97.08
73429;BME280;61643;49.564;17.412;2022-11-10T09:17:12;99070.00;;;9.19;97.28
73429;BME280;61643;49.564;17.412;2022-11-10T09:19:38;99061.50;;;9.22;97.88
73429;BME280;61643;49.564;17.412;2022-11-10T09:22:03;99069.56;;;9.22;98.87
73429;BME280;61643;49.564;17.412;2022-11-10T09:24:29;99072.97;;;9.29;98.03
73429;BME280;61643;49.564;17.412;2022-11-10T09:26:54;99074.75;;;9.35;97.46
73429;BME280;61643;49.564;17.412;2022-11-10T09:29:20;99079.88;;;9.37;96.28
73429;BME280;61643;49.564;17.412;2022-11-10T09:31:46;99084.81;;;9.40;96.14
73429;BME280;61643;49.564;17.412;2022-11-10T09:34:11;99091.81;;;9.41;96.93
73429;BME280;61643;49.564;17.412;2022-11-10T09:36:37;99089.94;;;9.42;96.26
73429;BME280;61643;49.564;17.412;2022-11-10T09:39:05;99103.25;;;9.36;96.85
73429;BME280;61643;49.564;17.412;2022-11-10T09:41:30;99099.50;;;9.37;96.23
73429;BME280;61643;49.564;17.412;2022-11-10T09:44:09;99116.38;;;9.26;97.03
73429;BME280;61643;49.564;17.412;2022-11-10T09:46:40;99119.22;;;9.31;97.01
73429;BME280;61643;49.564;17.412;2022-11-10T09:49:24;99126.47;;;9.31;97.11
73429;BME280;61643;49.564;17.412;2022-11-10T09:51:55;99121.91;;;9.31;97.09
73429;BME280;61643;49.564;17.412;2022-11-10T09:56:50;99121.25;;;9.36;97.48
73429;BME280;61643;49.564;17.412;2022-11-10T09:59:26;99124.41;;;9.45;97.23
73429;BME280;61643;49.564;17.412;2022-11-10T10:10:36;99137.28;;;9.43;96.38
73429;BME280;61643;49.564;17.412;2022-11-10T10:16:23;99147.88;;;9.37;95.44
73429;BME280;61643;49.564;17.412;2022-11-10T10:18:54;99144.97;;;9.39;95.99
73429;BME280;61643;49.564;17.412;2022-11-10T10:23:57;99148.84;;;9.43;95.01
73429;BME280;61643;49.564;17.412;2022-11-10T10:26:28;99145.69;;;9.46;95.69
73429;BME280;61643;49.564;17.412;2022-11-10T10:28:55;99156.97;;;9.55;95.36
73429;BME280;61643;49.564;17.412;2022-11-10T10:31:24;99163.50;;;9.59;95.64
73429;BME280;61643;49.564;17.412;2022-11-10T10:33:50;99160.59;;;9.60;95.69
73429;BME280;61643;49.564;17.412;2022-11-10T10:38:53;99161.38;;;9.79;94.82
73429;BME280;61643;49.564;17.412;2022-11-10T10:41:29;99156.72;;;9.86;95.13
73429;BME280;61643;49.564;17.412;2022-11-10T10:43:57;99142.56;;;9.79;93.71
73429;BME280;61643;49.564;17.412;2022-11-10T10:46:23;99144.78;;;9.82;93.88
73429;BME280;61643;49.564;17.412;2022-11-10T10:49:14;99156.94;;;9.84;94.15
73429;BME280;61643;49.564;17.412;2022-11-10T10:51:40;99163.75;;;9.87;94.84
73429;BME280;61643;49.564;17.412;2022-11-10T10:54:30;99153.13;;;9.92;95.47
73429;BME280;61643;49.564;17.412;2022-11-10T10:57:19;99158.38;;;9.99;94.91
73429;BME280;61643;49.564;17.412;2022-11-10T10:59:45;99160.97;;;9.94;94.62
73429;BME280;61643;49.564;17.412;2022-11-10T11:02:24;99153.56;;;9.89;94.51
73429;BME280;61643;49.564;17.412;2022-11-10T11:07:34;99167.03;;;9.89;95.69
73429;BME280;61643;49.564;17.412;2022-11-10T11:10:00;99166.56;;;9.92;95.22
73429;BME280;61643;49.564;17.412;2022-11-10T11:12:28;99172.28;;;9.96;95.20
73429;BME280;61643;49.564;17.412;2022-11-10T11:18:02;99171.75;;;10.05;95.47
73429;BME280;61643;49.564;17.412;2022-11-10T11:25:47;99169.44;;;10.09;95.18
73429;BME280;61643;49.564;17.412;2022-11-10T11:28:29;99170.63;;;10.13;94.72
73429;BME280;61643;49.564;17.412;2022-11-10T11:31:38;99164.63;;;10.11;94.98
73429;BME280;61643;49.564;17.412;2022-11-10T11:34:02;99162.50;;;10.01;95.61
73429;BME280;61643;49.564;17.412;2022-11-10T11:36:40;99169.06;;;10.05;95.09
73429;BME280;61643;49.564;17.412;2022-11-10T12:04:21;99180.06;;;10.45;92.61
73429;BME280;61643;49.564;17.412;2022-11-10T12:09:46;99180.31;;;10.55;92.25
73429;BME280;61643;49.564;17.412;2022-11-10T12:15:20;99194.13;;;10.59;91.08
73429;BME280;61643;49.564;17.412;2022-11-10T12:18:02;99185.22;;;10.70;90.72
73429;BME280;61643;49.564;17.412;2022-11-10T12:20:53;99192.94;;;10.78;90.20
73429;BME280;61643;49.564;17.412;2022-11-10T12:28:43;99195.16;;;10.93;88.96
73429;BME280;61643;49.564;17.412;2022-11-10T12:31:17;99204.31;;;10.92;88.15
73429;BME280;61643;49.564;17.412;2022-11-10T12:33:49;99194.72;;;10.84;85.82
73429;BME280;61643;49.564;17.412;2022-11-10T12:36:19;99197.28;;;10.79;86.12
73429;BME280;61643;49.564;17.412;2022-11-10T12:41:47;99199.16;;;10.67;87.35
73429;BME280;61643;49.564;17.412;2022-11-10T12:46:55;99207.69;;;10.52;88.24
73429;BME280;61643;49.564;17.412;2022-11-10T12:49:34;99212.72;;;10.49;89.09
73429;BME280;61643;49.564;17.412;2022-11-10T12:52:16;99203.56;;;10.38;89.51
73429;BME280;61643;49.564;17.412;2022-11-10T12:54:45;99214.44;;;10.43;88.54
73429;BME280;61643;49.564;17.412;2022-11-10T12:57:17;99212.09;;;10.47;88.32
73429;BME280;61643;49.564;17.412;2022-11-10T13:00:05;99204.66;;;10.49;88.35
73429;BME280;61643;49.564;17.412;2022-11-10T13:02:39;99219.25;;;10.53;87.62
73429;BME280;61643;49.564;17.412;2022-11-10T13:05:29;99214.59;;;10.60;86.96
73429;BME280;61643;49.564;17.412;2022-11-10T13:08:19;99216.94;;;10.68;84.84
73429;BME280;61643;49.564;17.412;2022-11-10T13:10:57;99222.91;;;10.70;85.38
73429;BME280;61643;49.564;17.412;2022-11-10T13:13:24;99222.56;;;10.66;84.77
73429;BME280;61643;49.564;17.412;2022-11-10T13:15:56;99223.47;;;10.60;85.94
73429;BME280;61643;49.564;17.412;2022-11-10T13:20:56;99224.84;;;10.40;84.71
73429;BME280;61643;49.564;17.412;2022-11-10T13:23:30;99231.16;;;10.33;85.27
73429;BME280;61643;49.564;17.412;2022-11-10T13:26:04;99235.72;;;10.33;85.91
73429;BME280;61643;49.564;17.412;2022-11-10T13:36:43;99244.47;;;10.28;87.22
73429;BME280;61643;49.564;17.412;2022-11-10T13:39:23;99260.16;;;10.31;86.50
73429;BME280;61643;49.564;17.412;2022-11-10T13:44:36;99264.63;;;10.38;84.97
73429;BME280;61643;49.564;17.412;2022-11-10T13:58:15;99274.22;;;10.33;83.17
73429;BME280;61643;49.564;17.412;2022-11-10T14:00:47;99276.19;;;10.26;84.02
73429;BME280;61643;49.564;17.412;2022-11-10T14:03:51;99283.53;;;10.19;84.02
73429;BME280;61643;49.564;17.412;2022-11-10T14:06:26;99277.38;;;10.12;83.58
73429;BME280;61643;49.564;17.412;2022-11-10T14:09:10;99276.78;;;10.10;82.56
73429;BME280;61643;49.564;17.412;2022-11-10T14:11:40;99279.94;;;10.07;83.87
73429;BME280;61643;49.564;17.412;2022-11-10T14:14:20;99289.88;;;10.07;84.30
73429;BME280;61643;49.564;17.412;2022-11-10T14:16:49;99299.44;;;10.03;84.79
73429;BME280;61643;49.564;17.412;2022-11-10T14:22:19;99313.06;;;9.89;85.94
73429;BME280;61643;49.564;17.412;2022-11-10T14:25:10;99314.75;;;9.84;86.04
73429;BME280;61643;49.564;17.412;2022-11-10T14:27:43;99308.44;;;9.78;85.44
73429;BME280;61643;49.564;17.412;2022-11-10T14:30:27;99314.25;;;9.75;85.43
73429;BME280;61643;49.564;17.412;2022-11-10T14:33:03;99322.16;;;9.70;84.64
73429;BME280;61643;49.564;17.412;2022-11-10T14:35:33;99318.06;;;9.68;84.63
73429;BME280;61643;49.564;17.412;2022-11-10T14:38:04;99317.44;;;9.66;84.79
73429;BME280;61643;49.564;17.412;2022-11-10T14:40:31;99320.00;;;9.61;85.36
73429;BME280;61643;49.564;17.412;2022-11-10T14:42:56;99327.25;;;9.60;84.94
73429;BME280;61643;49.564;17.412;2022-11-10T14:45:26;99321.69;;;9.55;85.85
73429;BME280;61643;49.564;17.412;2022-11-10T14:47:53;99320.94;;;9.48;85.60